Time;durP1;ratioP1;P1;durP2;ratioP2;P2;SDS_P1;SDS_P2;PMS_P1;PMS_P2;Temp;Humidity;BMP_temperature;BMP_pressure;BME280_temperature;BME280_humidity;BME280_pressure;Samples;Min_cycle;Max_cycle;Signal;HPM_P1;HPM_P2
2023/01/26 00:02:11;;;;;;;;;;;;;;;5.19;73.75;100753.91;5105943;28;5648;-78
2023/01/26 00:04:38;;;;;;;;;;;;;;;5.11;74.00;100762.00;5108514;28;5569;-78
2023/01/26 00:07:04;;;;;;;;;;;;;;;5.14;74.12;100769.63;5107606;28;5562;-78
2023/01/26 00:09:31;;;;;;;;;;;;;;;5.13;74.11;100770.66;5096203;28;5708;-78
2023/01/26 00:11:59;;;;;;;;;;;;;;;5.12;73.98;100764.50;5111374;27;5738;-78
2023/01/26 00:14:26;;;;;;;;;;;;;;;5.16;73.79;100770.31;5097969;28;5647;-78
2023/01/26 00:16:53;;;;;;;;;;;;;;;5.19;73.84;100767.28;5112407;28;5563;-78
2023/01/26 00:19:20;;;;;;;;;;;;;;;5.17;73.71;100778.13;5099687;27;5445;-78
2023/01/26 00:21:47;;;;;;;;;;;;;;;5.24;73.60;100787.09;5117052;27;5447;-78
2023/01/26 00:24:13;;;;;;;;;;;;;;;5.20;73.69;100791.09;5097404;27;5571;-78
2023/01/26 00:26:40;;;;;;;;;;;;;;;5.24;73.53;100792.44;5101551;27;5588;-78
2023/01/26 00:29:06;;;;;;;;;;;;;;;5.25;73.53;100798.59;5097829;27;5838;-78
2023/01/26 00:31:33;;;;;;;;;;;;;;;5.28;73.34;100797.41;5087279;27;5594;-78
2023/01/26 00:34:01;;;;;;;;;;;;;;;5.23;73.65;100797.94;5099411;27;5452;-78
2023/01/26 00:36:27;;;;;;;;;;;;;;;5.25;73.61;100795.94;5100256;27;5508;-78
2023/01/26 00:38:54;;;;;;;;;;;;;;;5.30;73.44;100798.91;5096984;27;5552;-78
2023/01/26 00:44:04;;;;;;;;;;;;;;;5.28;73.25;100810.75;5077978;27;5436;-78
2023/01/26 00:46:31;;;;;;;;;;;;;;;5.32;73.19;100807.53;5076914;28;5473;-78
2023/01/26 00:48:59;;;;;;;;;;;;;;;5.32;73.06;100817.41;5078520;27;5477;-78
2023/01/26 00:51:27;;;;;;;;;;;;;;;5.31;73.26;100819.25;5090818;27;5444;-78
2023/01/26 00:53:55;;;;;;;;;;;;;;;5.28;73.28;100829.47;5087364;27;5592;-78
2023/01/26 00:56:21;;;;;;;;;;;;;;;5.33;73.20;100837.78;5093488;27;5515;-78
2023/01/26 00:58:48;;;;;;;;;;;;;;;5.30;73.37;100848.81;5102513;27;5714;-78
2023/01/26 01:01:16;;;;;;;;;;;;;;;5.28;73.16;100851.66;5092811;27;5410;-78
2023/01/26 01:03:43;;;;;;;;;;;;;;;5.30;73.47;100841.63;5086300;27;5540;-78
2023/01/26 01:06:10;;;;;;;;;;;;;;;5.29;73.47;100853.31;5091512;27;6114;-78
2023/01/26 01:08:37;;;;;;;;;;;;;;;5.27;73.22;100860.69;5094559;27;5155;-78
2023/01/26 01:11:03;;;;;;;;;;;;;;;5.35;73.25;100865.13;5100658;27;5548;-78
2023/01/26 01:13:30;;;;;;;;;;;;;;;5.28;73.21;100869.53;5099466;27;5593;-78
2023/01/26 01:15:58;;;;;;;;;;;;;;;5.33;73.24;100877.84;5104710;27;5943;-78
2023/01/26 01:18:24;;;;;;;;;;;;;;;5.36;72.96;100878.31;5101832;27;5461;-78
2023/01/26 01:20:51;;;;;;;;;;;;;;;5.31;73.40;100874.50;5089231;27;5479;-78
2023/01/26 01:23:19;;;;;;;;;;;;;;;5.22;73.44;100874.56;5103149;27;5436;-78
2023/01/26 01:25:46;;;;;;;;;;;;;;;5.28;73.48;100869.53;5106836;27;5747;-78
2023/01/26 01:28:12;;;;;;;;;;;;;;;5.18;73.68;100869.75;5112295;27;5416;-78
2023/01/26 01:30:40;;;;;;;;;;;;;;;5.17;73.68;100874.25;5089269;27;5769;-78
2023/01/26 01:33:06;;;;;;;;;;;;;;;5.23;73.57;100883.41;5102655;27;5593;-78
2023/01/26 01:35:34;;;;;;;;;;;;;;;5.32;73.42;100882.31;5089967;27;5477;-78
2023/01/26 01:38:03;;;;;;;;;;;;;;;5.24;73.19;100882.41;5098966;27;5343;-78
2023/01/26 01:40:31;;;;;;;;;;;;;;;5.29;73.31;100892.53;5098883;27;5640;-78
2023/01/26 01:42:57;;;;;;;;;;;;;;;5.29;73.19;100892.53;5098845;27;5510;-78
2023/01/26 01:45:24;;;;;;;;;;;;;;;5.24;73.30;100901.94;5079952;27;5552;-78
2023/01/26 01:47:50;;;;;;;;;;;;;;;5.19;73.71;100903.47;5091187;27;5396;-78
2023/01/26 01:50:17;;;;;;;;;;;;;;;5.19;73.46;100904.28;5098868;27;5945;-78
2023/01/26 01:52:44;;;;;;;;;;;;;;;5.23;73.36;100907.44;5075345;27;5380;-78
2023/01/26 01:55:12;;;;;;;;;;;;;;;5.15;74.02;100903.00;5094544;27;5500;-78
2023/01/26 01:57:43;;;;;;;;;;;;;;;5.15;73.79;100905.66;5079850;27;5426;-78
2023/01/26 02:00:10;;;;;;;;;;;;;;;5.19;73.52;100914.13;5083636;27;5366;-78
2023/01/26 02:02:36;;;;;;;;;;;;;;;5.24;73.36;100911.78;5090584;27;5439;-78
2023/01/26 02:05:03;;;;;;;;;;;;;;;5.12;73.67;100921.19;5086563;27;5348;-78
2023/01/26 02:07:32;;;;;;;;;;;;;;;5.10;73.83;100924.03;5078537;27;5398;-78
2023/01/26 02:12:43;;;;;;;;;;;;;;;5.13;73.68;100921.00;5076364;27;5429;-78
2023/01/26 02:15:10;;;;;;;;;;;;;;;5.09;73.91;100930.38;5075238;27;5421;-78
2023/01/26 02:17:37;;;;;;;;;;;;;;;5.22;73.43;100935.97;5070943;27;5568;-78
2023/01/26 02:20:04;;;;;;;;;;;;;;;5.18;73.30;100947.19;5080635;27;5475;-78
2023/01/26 02:22:32;;;;;;;;;;;;;;;5.12;73.60;100943.38;5077076;27;5267;-78
2023/01/26 02:24:58;;;;;;;;;;;;;;;5.14;73.61;100952.03;5097080;27;5574;-78
2023/01/26 02:27:26;;;;;;;;;;;;;;;5.08;73.81;100958.06;5080788;27;5303;-78
2023/01/26 02:29:53;;;;;;;;;;;;;;;5.15;73.66;100967.06;5091323;27;5842;-78
2023/01/26 02:32:20;;;;;;;;;;;;;;;5.08;73.83;100973.28;5087513;27;5408;-78
2023/01/26 02:34:47;;;;;;;;;;;;;;;5.11;73.75;100970.25;5093305;27;5301;-78
2023/01/26 02:37:13;;;;;;;;;;;;;;;5.13;73.73;100966.41;5096616;27;5322;-78
2023/01/26 02:39:41;;;;;;;;;;;;;;;5.12;73.59;100972.75;5077380;27;5401;-78
2023/01/26 02:44:52;;;;;;;;;;;;;;;5.10;73.66;100974.75;5090210;27;5395;-78
2023/01/26 02:47:19;;;;;;;;;;;;;;;5.07;73.90;100972.44;5097697;27;5706;-78
2023/01/26 02:49:49;;;;;;;;;;;;;;;5.13;73.57;100971.75;5102543;27;5449;-78
2023/01/26 02:52:15;;;;;;;;;;;;;;;5.06;73.71;100988.63;5089879;27;5555;-78
2023/01/26 02:57:26;;;;;;;;;;;;;;;5.06;73.92;101005.50;5105221;27;5519;-78
2023/01/26 02:59:54;;;;;;;;;;;;;;;5.00;74.06;101011.53;5079461;27;5402;-78
2023/01/26 03:02:21;;;;;;;;;;;;;;;4.99;74.02;101012.50;5090956;27;5634;-78
2023/01/26 03:04:48;;;;;;;;;;;;;;;4.98;73.90;101018.88;5091136;27;5646;-78
2023/01/26 03:07:15;;;;;;;;;;;;;;;5.03;73.86;101023.66;5086367;27;5326;-78
2023/01/26 03:09:42;;;;;;;;;;;;;;;5.01;73.86;101038.03;5071973;28;5482;-78
2023/01/26 03:12:08;;;;;;;;;;;;;;;4.94;74.04;101037.06;5086468;27;5371;-78
2023/01/26 03:14:37;;;;;;;;;;;;;;;4.94;74.14;101039.75;5086975;27;5966;-78
2023/01/26 03:17:03;;;;;;;;;;;;;;;4.96;74.11;101055.56;5086669;27;5590;-79
2023/01/26 03:27:43;;;;;;;;;;;;;;;4.97;73.83;101060.75;5092005;27;5841;-78
2023/01/26 03:30:10;;;;;;;;;;;;;;;4.98;74.04;101062.41;5089391;27;5293;-78
2023/01/26 03:32:36;;;;;;;;;;;;;;;4.90;74.07;101065.09;5094935;27;5595;-78
2023/01/26 03:35:03;;;;;;;;;;;;;;;4.92;74.11;101071.09;5081724;28;5639;-78
2023/01/26 03:37:35;;;;;;;;;;;;;;;4.96;73.88;101074.25;5100903;27;5351;-78
2023/01/26 03:56:31;;;;;;;;;;;;;;;4.98;73.81;101104.28;5092528;27;5458;-78
2023/01/26 03:59:07;;;;;;;;;;;;;;;5.04;73.50;101108.13;5096518;27;5444;-78
2023/01/26 04:01:34;;;;;;;;;;;;;;;5.05;73.88;101112.44;5099568;27;5708;-78
2023/01/26 04:09:29;;;;;;;;;;;;;;;5.12;73.17;101114.28;5090356;27;5480;-78
2023/01/26 04:11:56;;;;;;;;;;;;;;;5.02;73.58;101121.63;5079048;27;5476;-78
2023/01/26 04:23:56;;;;;;;;;;;;;;;5.07;73.35;101126.47;5092016;27;5488;-78
2023/01/26 04:26:42;;;;;;;;;;;;;;;5.09;73.25;101135.13;5095134;27;5473;-78
2023/01/26 04:29:11;;;;;;;;;;;;;;;5.14;73.19;101149.63;5096179;27;5883;-78
2023/01/26 04:31:40;;;;;;;;;;;;;;;5.11;73.18;101154.50;5093705;27;5504;-78
2023/01/26 04:34:07;;;;;;;;;;;;;;;5.11;73.00;101155.31;5092668;27;5474;-78
2023/01/26 04:36:34;;;;;;;;;;;;;;;5.07;73.17;101159.34;5091922;27;5981;-78
2023/01/26 04:39:00;;;;;;;;;;;;;;;5.12;73.13;101167.69;5093270;27;5429;-78
2023/01/26 04:41:28;;;;;;;;;;;;;;;5.11;73.34;101162.50;5095163;27;5963;-78
2023/01/26 04:43:55;;;;;;;;;;;;;;;5.11;73.10;101170.50;5094165;27;5601;-78
2023/01/26 04:46:21;;;;;;;;;;;;;;;5.15;72.95;101163.84;5076373;27;5536;-78
2023/01/26 04:48:50;;;;;;;;;;;;;;;5.19;72.86;101175.84;5094454;27;5374;-77
2023/01/26 04:51:17;;;;;;;;;;;;;;;5.10;73.08;101177.69;5078299;27;5597;-78
2023/01/26 04:53:44;;;;;;;;;;;;;;;5.16;72.91;101179.69;5092036;27;5522;-78
2023/01/26 04:56:11;;;;;;;;;;;;;;;5.15;72.92;101201.22;5072479;27;5282;-78
2023/01/26 04:58:37;;;;;;;;;;;;;;;5.11;72.95;101203.38;5099740;27;5469;-78
2023/01/26 05:01:04;;;;;;;;;;;;;;;5.17;72.87;101199.22;5077659;27;5608;-78
2023/01/26 05:03:30;;;;;;;;;;;;;;;5.19;72.68;101197.22;5089040;27;5477;-78
2023/01/26 05:05:58;;;;;;;;;;;;;;;5.16;72.88;101205.56;5110468;27;5754;-78
2023/01/26 05:08:24;;;;;;;;;;;;;;;5.13;73.10;101203.22;5112752;27;5737;-78
2023/01/26 05:10:51;;;;;;;;;;;;;;;5.14;73.12;101211.06;5104751;27;5925;-78
2023/01/26 05:13:17;;;;;;;;;;;;;;;5.17;72.97;101215.22;5113239;27;5971;-78
2023/01/26 05:15:44;;;;;;;;;;;;;;;5.23;72.79;101220.75;5091382;27;5705;-78
2023/01/26 05:18:10;;;;;;;;;;;;;;;5.30;72.54;101228.09;5099478;27;5708;-78
2023/01/26 05:20:37;;;;;;;;;;;;;;;5.17;72.67;101223.25;5098733;27;5497;-78
2023/01/26 05:23:03;;;;;;;;;;;;;;;5.16;72.92;101222.41;5099292;27;5745;-78
2023/01/26 05:25:30;;;;;;;;;;;;;;;5.24;72.58;101237.63;5099504;27;5773;-78
2023/01/26 05:27:58;;;;;;;;;;;;;;;5.33;72.44;101249.94;5085953;27;5509;-78
2023/01/26 05:30:26;;;;;;;;;;;;;;;5.22;72.80;101245.78;5081272;27;5354;-78
2023/01/26 05:32:54;;;;;;;;;;;;;;;5.30;72.45;101242.28;5100396;27;5388;-78
2023/01/26 05:35:21;;;;;;;;;;;;;;;5.23;72.62;101252.81;5099115;27;5868;-78
2023/01/26 05:37:49;;;;;;;;;;;;;;;5.30;72.69;101255.63;5071926;27;5503;-78
2023/01/26 05:40:17;;;;;;;;;;;;;;;5.28;72.59;101262.13;5095110;27;5332;-78
2023/01/26 05:42:45;;;;;;;;;;;;;;;5.24;72.55;101265.16;5092633;27;5385;-78
2023/01/26 05:45:11;;;;;;;;;;;;;;;5.23;72.65;101274.16;5091489;27;5337;-78
2023/01/26 05:47:38;;;;;;;;;;;;;;;5.30;72.47;101273.50;5095624;27;5418;-78
2023/01/26 05:50:05;;;;;;;;;;;;;;;5.26;72.51;101272.97;5077957;27;5486;-78
2023/01/26 05:52:31;;;;;;;;;;;;;;;5.27;72.56;101279.19;5092896;27;6017;-78
2023/01/26 05:54:58;;;;;;;;;;;;;;;5.30;72.39;101273.50;5094068;27;5871;-78
2023/01/26 05:57:25;;;;;;;;;;;;;;;5.29;72.43;101282.50;5105003;27;5535;-78
2023/01/26 05:59:52;;;;;;;;;;;;;;;5.43;72.20;101288.00;5104274;27;5841;-78
2023/01/26 06:02:19;;;;;;;;;;;;;;;5.31;72.25;101302.69;5089990;27;5539;-78
2023/01/26 06:04:46;;;;;;;;;;;;;;;5.30;72.61;101306.38;5083410;27;5450;-78
2023/01/26 06:07:12;;;;;;;;;;;;;;;5.28;72.91;101310.22;5087328;27;5907;-78
2023/01/26 06:09:40;;;;;;;;;;;;;;;5.27;72.56;101311.22;5087347;27;5389;-78
2023/01/26 06:12:08;;;;;;;;;;;;;;;5.27;72.48;101319.25;5088423;27;5510;-78
2023/01/26 06:14:35;;;;;;;;;;;;;;;5.31;72.38;101326.75;5092725;27;5631;-78
2023/01/26 06:17:02;;;;;;;;;;;;;;;5.27;72.44;101333.44;5091849;27;5315;-78
2023/01/26 06:19:29;;;;;;;;;;;;;;;5.26;72.48;101337.06;5095220;27;5488;-78
2023/01/26 06:21:56;;;;;;;;;;;;;;;5.24;72.61;101344.44;5078834;27;5592;-78
2023/01/26 06:24:23;;;;;;;;;;;;;;;5.21;72.68;101347.44;5088531;27;5802;-78
2023/01/26 06:26:50;;;;;;;;;;;;;;;5.22;72.86;101354.44;5092144;27;5407;-78
2023/01/26 06:29:16;;;;;;;;;;;;;;;5.26;72.62;101358.44;5093389;27;5414;-78
2023/01/26 06:31:43;;;;;;;;;;;;;;;5.31;72.45;101364.13;5092115;27;5488;-78
2023/01/26 06:34:11;;;;;;;;;;;;;;;5.21;72.49;101369.66;5091530;27;5325;-78
2023/01/26 06:36:37;;;;;;;;;;;;;;;5.20;72.85;101373.28;5094697;27;5457;-78
2023/01/26 06:39:07;;;;;;;;;;;;;;;5.21;72.64;101382.16;5091031;27;5523;-78
2023/01/26 06:41:34;;;;;;;;;;;;;;;5.32;72.66;101394.34;5087891;28;5682;-78
2023/01/26 06:44:02;;;;;;;;;;;;;;;5.24;72.54;101400.53;5081026;27;5612;-78
2023/01/26 06:46:28;;;;;;;;;;;;;;;5.14;72.97;101407.84;5097577;27;5649;-78
2023/01/26 06:48:55;;;;;;;;;;;;;;;5.11;73.10;101413.50;5088686;27;5460;-78
2023/01/26 06:51:22;;;;;;;;;;;;;;;5.16;72.75;101416.53;5078980;27;5410;-78
2023/01/26 06:53:49;;;;;;;;;;;;;;;5.22;72.62;101426.56;5100188;27;5521;-78
2023/01/26 06:56:15;;;;;;;;;;;;;;;5.17;72.86;101436.88;5078509;27;5433;-78
2023/01/26 06:58:42;;;;;;;;;;;;;;;5.19;72.61;101426.88;5092740;27;6164;-78
2023/01/26 07:01:09;;;;;;;;;;;;;;;5.19;72.64;101432.22;5082657;27;5760;-78
2023/01/26 07:03:36;;;;;;;;;;;;;;;5.19;72.70;101433.06;5091038;27;5370;-78
2023/01/26 07:06:04;;;;;;;;;;;;;;;5.16;72.76;101444.06;5091361;27;6233;-77
2023/01/26 07:08:31;;;;;;;;;;;;;;;5.20;72.71;101447.25;5077407;27;5497;-77
2023/01/26 07:10:57;;;;;;;;;;;;;;;5.11;72.89;101446.38;5088536;27;5373;-77
2023/01/26 07:13:26;;;;;;;;;;;;;;;5.10;73.04;101452.72;5091931;27;5469;-77
2023/01/26 07:15:52;;;;;;;;;;;;;;;5.12;72.97;101458.75;5072986;27;5301;-77
2023/01/26 07:18:19;;;;;;;;;;;;;;;5.16;72.86;101456.59;5088480;27;5617;-78
2023/01/26 07:20:46;;;;;;;;;;;;;;;5.13;72.87;101454.25;5080722;28;5465;-77
2023/01/26 07:23:13;;;;;;;;;;;;;;;5.09;73.06;101463.56;5090215;27;5589;-77
2023/01/26 07:25:40;;;;;;;;;;;;;;;5.09;72.99;101472.44;5091368;27;5346;-77
2023/01/26 07:28:08;;;;;;;;;;;;;;;5.11;72.72;101473.09;5089603;27;5503;-77
2023/01/26 07:30:35;;;;;;;;;;;;;;;5.10;72.92;101478.59;5091514;27;5405;-77
2023/01/26 07:33:02;;;;;;;;;;;;;;;5.11;72.76;101480.28;5079533;28;5538;-77
2023/01/26 07:35:29;;;;;;;;;;;;;;;5.14;72.72;101487.97;5098829;27;5325;-77
2023/01/26 07:37:57;;;;;;;;;;;;;;;5.05;72.94;101481.75;5097695;27;5530;-77
2023/01/26 07:40:25;;;;;;;;;;;;;;;5.14;72.66;101472.75;5099468;28;5746;-78
2023/01/26 07:42:53;;;;;;;;;;;;;;;5.22;72.45;101475.47;5097460;28;6014;-78
2023/01/26 07:45:22;;;;;;;;;;;;;;;5.17;72.66;101484.97;5101401;28;5389;-78
2023/01/26 07:47:48;;;;;;;;;;;;;;;5.17;72.70;101479.63;5090940;28;5497;-78
2023/01/26 07:50:17;;;;;;;;;;;;;;;5.12;72.76;101493.47;5083366;28;5637;-78
2023/01/26 07:52:44;;;;;;;;;;;;;;;5.16;72.63;101499.31;5095078;28;5449;-77
2023/01/26 07:55:11;;;;;;;;;;;;;;;5.17;72.62;101517.00;5097941;28;6619;-78
2023/01/26 07:57:38;;;;;;;;;;;;;;;5.13;72.63;101518.34;5096545;28;5467;-77
2023/01/26 08:00:05;;;;;;;;;;;;;;;5.11;72.65;101521.16;5099955;28;5457;-78
2023/01/26 08:02:32;;;;;;;;;;;;;;;5.10;72.72;101524.84;5095940;28;5959;-77
2023/01/26 08:04:59;;;;;;;;;;;;;;;5.18;72.47;101529.38;5096587;28;5428;-78
2023/01/26 08:07:25;;;;;;;;;;;;;;;5.22;72.43;101536.06;5108805;28;5444;-78
2023/01/26 08:09:52;;;;;;;;;;;;;;;5.10;72.68;101537.34;5092913;28;5590;-78
2023/01/26 08:12:20;;;;;;;;;;;;;;;5.25;72.22;101541.09;5098534;28;5443;-78
2023/01/26 08:14:47;;;;;;;;;;;;;;;5.13;72.73;101548.53;5112066;28;5517;-77
2023/01/26 08:17:16;;;;;;;;;;;;;;;5.11;72.72;101547.03;5108275;28;5303;-77
2023/01/26 08:19:42;;;;;;;;;;;;;;;5.14;72.39;101552.88;5098220;28;5283;-77
2023/01/26 08:22:09;;;;;;;;;;;;;;;5.18;72.43;101556.09;5095499;28;5123;-77
2023/01/26 08:24:36;;;;;;;;;;;;;;;5.22;72.25;101557.44;5104934;28;5346;-78
2023/01/26 08:27:04;;;;;;;;;;;;;;;5.19;72.40;101560.44;5113351;28;5361;-78
2023/01/26 08:29:32;;;;;;;;;;;;;;;5.17;72.44;101565.09;5099378;28;5834;-78
2023/01/26 08:31:59;;;;;;;;;;;;;;;5.17;72.46;101565.09;5094217;28;5510;-78
2023/01/26 08:34:27;;;;;;;;;;;;;;;5.21;72.19;101571.78;5103755;28;5186;-78
2023/01/26 08:36:54;;;;;;;;;;;;;;;5.16;72.42;101582.94;5098009;28;5012;-77
2023/01/26 08:39:21;;;;;;;;;;;;;;;5.24;72.24;101579.50;5099402;27;5140;-77
2023/01/26 08:41:48;;;;;;;;;;;;;;;5.25;72.02;101589.16;5107267;27;5311;-77
2023/01/26 08:44:14;;;;;;;;;;;;;;;5.20;72.26;101589.63;5092478;27;5172;-78
2023/01/26 08:46:41;;;;;;;;;;;;;;;5.20;72.28;101594.97;5104593;27;5148;-77
2023/01/26 08:49:08;;;;;;;;;;;;;;;5.21;72.08;101594.00;5107277;27;5113;-78
2023/01/26 08:51:34;;;;;;;;;;;;;;;5.28;72.05;101604.03;5104819;27;5103;-78
2023/01/26 08:54:01;;;;;;;;;;;;;;;5.24;72.07;101604.38;5103249;27;5015;-78
2023/01/26 08:56:28;;;;;;;;;;;;;;;5.33;71.71;101602.56;5095201;27;5170;-78
2023/01/26 08:58:55;;;;;;;;;;;;;;;5.28;71.97;101607.53;5101248;27;5023;-78
2023/01/26 09:01:22;;;;;;;;;;;;;;;5.31;71.90;101617.91;5084976;27;5268;-78
2023/01/26 09:03:50;;;;;;;;;;;;;;;5.31;71.97;101625.09;5105283;27;5319;-78
2023/01/26 09:06:16;;;;;;;;;;;;;;;5.28;71.98;101630.75;5103320;27;5238;-77
2023/01/26 09:08:43;;;;;;;;;;;;;;;5.22;72.07;101630.38;5087235;27;5268;-78
2023/01/26 09:11:11;;;;;;;;;;;;;;;5.24;72.23;101633.75;5105051;27;5256;-78
2023/01/26 09:13:38;;;;;;;;;;;;;;;5.21;72.10;101643.91;5102914;27;5273;-77
2023/01/26 09:16:06;;;;;;;;;;;;;;;5.29;72.01;101656.47;5082935;28;5176;-78
2023/01/26 09:18:32;;;;;;;;;;;;;;;5.34;71.72;101657.66;5082782;28;5008;-78
2023/01/26 09:20:59;;;;;;;;;;;;;;;5.31;71.78;101663.31;5081728;28;5546;-78
2023/01/26 09:23:26;;;;;;;;;;;;;;;5.33;71.86;101663.19;5085107;28;5212;-78
2023/01/26 09:25:53;;;;;;;;;;;;;;;5.38;71.62;101663.53;5083983;27;5424;-78
2023/01/26 09:28:20;;;;;;;;;;;;;;;5.20;72.20;101660.91;5084116;28;5691;-78
2023/01/26 09:30:47;;;;;;;;;;;;;;;5.28;71.91;101660.97;5084477;28;5230;-78
2023/01/26 09:33:14;;;;;;;;;;;;;;;5.33;71.87;101668.53;5082653;28;5115;-78
2023/01/26 09:35:40;;;;;;;;;;;;;;;5.35;71.91;101666.50;5081747;28;5180;-78
2023/01/26 09:38:07;;;;;;;;;;;;;;;5.37;71.68;101676.03;5084392;28;5528;-78
2023/01/26 09:40:33;;;;;;;;;;;;;;;5.34;71.93;101678.19;5077802;28;5362;-78
2023/01/26 09:43:01;;;;;;;;;;;;;;;5.29;72.02;101685.84;5080386;28;5318;-78
2023/01/26 09:45:29;;;;;;;;;;;;;;;5.33;71.87;101696.06;5081890;28;5764;-78
2023/01/26 09:47:56;;;;;;;;;;;;;;;5.35;72.04;101695.91;5082259;28;5293;-78
2023/01/26 09:50:22;;;;;;;;;;;;;;;5.43;71.73;101696.78;5088633;28;5142;-78
2023/01/26 09:52:49;;;;;;;;;;;;;;;5.35;72.02;101709.25;5083766;28;5275;-78
2023/01/26 09:55:15;;;;;;;;;;;;;;;5.31;72.15;101706.06;5084691;28;5817;-79
2023/01/26 09:57:43;;;;;;;;;;;;;;;5.28;72.13;101709.06;5082114;28;5677;-79
2023/01/26 10:00:11;;;;;;;;;;;;;;;5.28;72.24;101714.41;5082799;28;5240;-78
2023/01/26 10:02:37;;;;;;;;;;;;;;;5.37;71.87;101720.63;5082504;28;5214;-78
2023/01/26 10:05:04;;;;;;;;;;;;;;;5.41;71.73;101719.31;5090611;28;5277;-79
2023/01/26 10:07:31;;;;;;;;;;;;;;;5.41;71.78;101716.63;5087411;28;5224;-78
2023/01/26 10:09:59;;;;;;;;;;;;;;;5.36;71.87;101725.13;5099914;28;2138;-79
2023/01/26 10:12:26;;;;;;;;;;;;;;;5.34;71.92;101734.31;5095564;28;4842;-79
2023/01/26 10:14:53;;;;;;;;;;;;;;;5.36;72.09;101732.31;5095456;28;2228;-79
2023/01/26 10:17:20;;;;;;;;;;;;;;;5.34;72.12;101732.47;5103284;28;2329;-79
2023/01/26 10:19:48;;;;;;;;;;;;;;;5.35;72.12;101733.31;5096870;28;2150;-78
2023/01/26 10:22:14;;;;;;;;;;;;;;;5.38;72.00;101730.31;5093161;28;2157;-79
2023/01/26 10:24:41;;;;;;;;;;;;;;;5.41;72.11;101735.34;5090574;28;5376;-79
2023/01/26 10:27:09;;;;;;;;;;;;;;;5.39;72.13;101738.19;5089816;28;4743;-79
2023/01/26 10:29:36;;;;;;;;;;;;;;;5.30;72.46;101736.47;5096307;28;5316;-79
2023/01/26 10:32:03;;;;;;;;;;;;;;;5.37;72.29;101748.19;5091919;28;2605;-79
2023/01/26 10:34:30;;;;;;;;;;;;;;;5.28;72.40;101738.44;5101170;28;2432;-79
2023/01/26 10:36:58;;;;;;;;;;;;;;;5.33;72.46;101744.16;5103750;28;2004;-79
2023/01/26 10:39:25;;;;;;;;;;;;;;;5.29;72.62;101747.28;5104710;28;1917;-79
2023/01/26 10:41:52;;;;;;;;;;;;;;;5.23;73.01;101752.28;5094593;28;4742;-78
2023/01/26 10:44:21;;;;;;;;;;;;;;;5.32;72.70;101755.00;5096092;28;2158;-79
2023/01/26 10:46:49;;;;;;;;;;;;;;;5.27;72.80;101758.16;5094156;28;2302;-79
2023/01/26 10:49:15;;;;;;;;;;;;;;;5.28;72.89;101757.13;5101176;28;2257;-79
2023/01/26 10:51:43;;;;;;;;;;;;;;;5.37;72.61;101750.84;5093752;27;5329;-79
2023/01/26 10:54:09;;;;;;;;;;;;;;;5.31;72.91;101759.50;5096214;28;5390;-79
2023/01/26 10:56:37;;;;;;;;;;;;;;;5.31;72.77;101751.47;5096112;28;5257;-79
2023/01/26 10:59:04;;;;;;;;;;;;;;;5.30;73.08;101759.66;5091991;28;5292;-79
2023/01/26 11:01:30;;;;;;;;;;;;;;;5.26;73.15;101752.94;5093478;28;5465;-79
2023/01/26 11:03:57;;;;;;;;;;;;;;;5.30;73.07;101757.81;5093041;28;5376;-79
2023/01/26 11:06:24;;;;;;;;;;;;;;;5.26;73.13;101767.13;5091360;28;5186;-79
2023/01/26 11:08:50;;;;;;;;;;;;;;;5.26;73.31;101761.78;5091901;28;5414;-79
2023/01/26 11:11:17;;;;;;;;;;;;;;;5.27;73.33;101766.16;5091964;28;5368;-78
2023/01/26 11:13:44;;;;;;;;;;;;;;;5.27;73.44;101759.97;5092461;28;5700;-79
2023/01/26 11:16:10;;;;;;;;;;;;;;;5.24;73.35;101769.13;5094988;28;5448;-79
2023/01/26 11:18:41;;;;;;;;;;;;;;;5.22;73.49;101766.59;5092382;28;5267;-79
2023/01/26 11:21:08;;;;;;;;;;;;;;;5.29;73.33;101774.00;5092665;28;5412;-79
2023/01/26 11:23:35;;;;;;;;;;;;;;;5.22;73.47;101763.94;5088676;28;5279;-79
2023/01/26 11:26:02;;;;;;;;;;;;;;;5.21;73.76;101764.94;5090308;28;5322;-79
2023/01/26 11:28:28;;;;;;;;;;;;;;;5.24;73.60;101767.31;5091087;28;5369;-79
2023/01/26 11:30:55;;;;;;;;;;;;;;;5.30;73.68;101770.34;5091908;28;6062;-79
2023/01/26 11:33:22;;;;;;;;;;;;;;;5.28;73.82;101775.84;5090904;28;5250;-79
2023/01/26 11:35:49;;;;;;;;;;;;;;;5.20;74.03;101779.28;5096070;28;5565;-79
2023/01/26 11:38:15;;;;;;;;;;;;;;;5.27;73.79;101776.84;5095593;28;5322;-79
2023/01/26 11:40:43;;;;;;;;;;;;;;;5.28;73.64;101777.69;5095718;28;5269;-79
2023/01/26 11:43:12;;;;;;;;;;;;;;;5.27;73.73;101784.03;5091568;28;5297;-79
2023/01/26 11:45:39;;;;;;;;;;;;;;;5.29;73.84;101787.34;5090142;28;5766;-78
2023/01/26 11:48:06;;;;;;;;;;;;;;;5.29;73.88;101782.00;5091437;28;5530;-79
2023/01/26 11:50:34;;;;;;;;;;;;;;;5.34;73.62;101783.22;5093727;28;5256;-78
2023/01/26 11:53:01;;;;;;;;;;;;;;;5.29;73.69;101782.84;5091124;28;5393;-79
2023/01/26 11:55:28;;;;;;;;;;;;;;;5.31;73.86;101786.22;5091634;28;5402;-78
2023/01/26 11:57:54;;;;;;;;;;;;;;;5.29;73.99;101790.84;5087041;28;5293;-78
2023/01/26 12:00:20;;;;;;;;;;;;;;;5.28;73.92;101788.34;5090222;28;5442;-78
2023/01/26 12:02:47;;;;;;;;;;;;;;;5.30;73.93;101787.22;5090920;28;5423;-78
2023/01/26 12:05:13;;;;;;;;;;;;;;;5.33;73.95;101796.75;5097334;28;5172;-78
2023/01/26 12:07:50;;;;;;;;;;;;;;;5.33;74.04;101799.44;5099710;28;5137;-79
2023/01/26 12:10:16;;;;;;;;;;;;;;;5.32;74.15;101793.22;5103156;28;1281;-78
2023/01/26 12:12:44;;;;;;;;;;;;;;;5.31;74.16;101804.06;5100555;28;2117;-78
2023/01/26 12:15:11;;;;;;;;;;;;;;;5.33;74.04;101805.59;5103446;28;2354;-78
2023/01/26 12:17:38;;;;;;;;;;;;;;;5.35;73.95;101802.75;5118885;27;5956;-79
2023/01/26 12:20:04;;;;;;;;;;;;;;;5.34;74.06;101807.28;5104899;27;5254;-78
2023/01/26 12:22:31;;;;;;;;;;;;;;;5.38;74.02;101808.66;5115946;27;5362;-78
2023/01/26 12:24:57;;;;;;;;;;;;;;;5.40;74.15;101808.50;5115675;27;5293;-78
2023/01/26 12:27:24;;;;;;;;;;;;;;;5.34;74.13;101815.28;5114023;27;5565;-78
2023/01/26 12:29:50;;;;;;;;;;;;;;;5.33;74.26;101821.63;5100292;27;5354;-78
2023/01/26 12:32:17;;;;;;;;;;;;;;;5.36;74.11;101807.97;5114883;27;5287;-78
2023/01/26 12:34:43;;;;;;;;;;;;;;;5.36;74.38;101815.16;5100347;27;5363;-78
2023/01/26 12:37:10;;;;;;;;;;;;;;;5.37;74.36;101814.97;5114274;27;5354;-78
2023/01/26 12:39:36;;;;;;;;;;;;;;;5.41;74.25;101815.50;5111147;27;5519;-78
2023/01/26 12:42:03;;;;;;;;;;;;;;;5.41;74.35;101820.84;5113028;27;5540;-79
2023/01/26 12:44:29;;;;;;;;;;;;;;;5.42;74.19;101811.84;5100672;27;5429;-79
2023/01/26 12:46:56;;;;;;;;;;;;;;;5.44;74.18;101810.72;5100951;27;5634;-79
2023/01/26 12:49:23;;;;;;;;;;;;;;;5.41;74.32;101816.38;5116806;27;5578;-79
2023/01/26 12:51:50;;;;;;;;;;;;;;;5.42;74.39;101811.84;5117391;27;5488;-79
2023/01/26 12:54:17;;;;;;;;;;;;;;;5.47;74.40;101821.09;5110627;27;5357;-79
2023/01/26 12:56:43;;;;;;;;;;;;;;;5.42;74.50;101815.34;5113483;27;5280;-79
2023/01/26 12:59:10;;;;;;;;;;;;;;;5.41;74.68;101815.50;5112554;27;5564;-79
2023/01/26 13:01:37;;;;;;;;;;;;;;;5.44;74.60;101808.03;5103742;27;5375;-79
2023/01/26 13:04:03;;;;;;;;;;;;;;;5.46;74.42;101810.53;5107724;27;5634;-78
2023/01/26 13:06:29;;;;;;;;;;;;;;;5.50;74.68;101813.72;5104853;27;5282;-78
2023/01/26 13:08:56;;;;;;;;;;;;;;;5.50;74.48;101809.25;5105517;27;5157;-79
2023/01/26 13:11:24;;;;;;;;;;;;;;;5.50;74.56;101816.41;5088049;27;5230;-79
2023/01/26 13:13:51;;;;;;;;;;;;;;;5.54;74.59;101815.13;5090070;27;5428;-79
2023/01/26 13:16:18;;;;;;;;;;;;;;;5.52;74.79;101812.59;5086018;27;5336;-78
2023/01/26 13:18:45;;;;;;;;;;;;;;;5.51;74.52;101813.59;5102861;27;5360;-79
2023/01/26 13:21:16;;;;;;;;;;;;;;;5.51;74.93;101815.44;5105322;27;5643;-79
2023/01/26 13:23:42;;;;;;;;;;;;;;;5.55;74.54;101819.44;5104317;27;5132;-78
2023/01/26 13:26:09;;;;;;;;;;;;;;;5.54;74.57;101818.63;5094261;27;5421;-79
2023/01/26 13:28:37;;;;;;;;;;;;;;;5.55;74.84;101822.13;5105495;27;5412;-79
2023/01/26 13:31:03;;;;;;;;;;;;;;;5.57;74.86;101823.66;5085878;28;5273;-79
2023/01/26 13:33:30;;;;;;;;;;;;;;;5.57;74.62;101825.50;5105324;27;5454;-78
2023/01/26 13:35:56;;;;;;;;;;;;;;;5.57;74.69;101828.16;5103856;27;5389;-78
2023/01/26 13:38:23;;;;;;;;;;;;;;;5.58;74.95;101835.19;5105578;27;5621;-79
2023/01/26 13:40:50;;;;;;;;;;;;;;;5.56;74.73;101835.34;5085902;27;5382;-78
2023/01/26 13:43:17;;;;;;;;;;;;;;;5.59;74.84;101843.06;5104490;27;5331;-78
2023/01/26 13:45:45;;;;;;;;;;;;;;;5.58;74.98;101852.03;5084826;27;5473;-79
2023/01/26 13:48:12;;;;;;;;;;;;;;;5.59;75.07;101855.56;5108893;27;5563;-79